Time;durP1;ratioP1;P1;durP2;ratioP2;P2;SDS_P1;SDS_P2;PMS_P1;PMS_P2;Temp;Humidity;BMP_temperature;BMP_pressure;BME280_temperature;BME280_humidity;BME280_pressure;Samples;Min_cycle;Max_cycle;Signal;HPM_P1;HPM_P2
2021/11/02 00:00:55;;;;;;;205.07;68.07;;;;;;;;;;5040033;28;20166;-91
2021/11/02 00:03:21;;;;;;;216.73;75.57;;;;;;;;;;5039534;28;20169;-87
2021/11/02 00:05:49;;;;;;;230.13;78.30;;;;;;;;;;5020214;28;20200;-86
2021/11/02 00:08:16;;;;;;;256.60;83.47;;;;;;;;;;5018065;28;20243;-86
2021/11/02 00:10:44;;;;;;;264.67;82.60;;;;;;;;;;5001994;28;20190;-86
2021/11/02 00:13:13;;;;;;;142.80;54.53;;;;;;;;;;5036982;28;20169;-88
2021/11/02 00:15:41;;;;;;;148.73;52.33;;;2.00;99.90;;;;;;5039499;28;20174;-87
2021/11/02 00:18:08;;;;;;;200.63;65.20;;;;;;;;;;5038829;28;20278;-86
2021/11/02 00:20:36;;;;;;;131.17;49.13;;;;;;;;;;5031216;28;20194;-87
2021/11/02 00:23:03;;;;;;;146.90;53.93;;;;;;;;;;5015405;28;20182;-86
2021/11/02 00:25:31;;;;;;;184.43;61.80;;;2.20;99.90;;;;;;5014224;28;20179;-86
2021/11/02 00:28:07;;;;;;;156.07;57.63;;;2.20;99.90;;;;;;5015229;28;20239;-92
2021/11/02 00:30:36;;;;;;;157.43;56.00;;;2.10;99.90;;;;;;5014143;28;20645;-86
2021/11/02 00:33:02;;;;;;;146.30;51.10;;;;;;;;;;5014081;28;20179;-86
2021/11/02 00:35:31;;;;;;;125.30;46.53;;;2.10;99.90;;;;;;5014020;28;20183;-86
2021/11/02 00:37:56;;;;;;;119.17;45.40;;;2.90;99.90;;;;;;5013810;28;20304;-86
2021/11/02 00:40:23;;;;;;;105.10;41.17;;;;;;;;;;4997458;28;20330;-86
2021/11/02 00:42:54;;;;;;;99.57;39.90;;;2.10;99.90;;;;;;5013839;28;20194;-86
2021/11/02 00:45:28;;;;;;;78.30;34.93;;;3.80;99.90;;;;;;5013706;28;20192;-86
2021/11/02 00:47:55;;;;;;;60.90;26.63;;;2.30;99.90;;;;;;5015111;28;20258;-87
2021/11/02 00:50:21;;;;;;;56.23;26.57;;;;;;;;;;5013580;28;20535;-85
2021/11/02 00:52:47;;;;;;;51.93;26.93;;;;;;;;;;5012906;28;20188;-85
2021/11/02 00:55:13;;;;;;;65.33;28.80;;;2.60;99.90;;;;;;5013441;28;20190;-85
2021/11/02 00:57:39;;;;;;;59.60;27.67;;;3.70;99.90;;;;;;5014401;28;20295;-85
2021/11/02 01:00:07;;;;;;;66.63;31.03;;;3.70;99.90;;;;;;4996968;28;20243;-85
2021/11/02 01:02:33;;;;;;;72.00;31.10;;;2.80;99.90;;;;;;5014688;28;20181;-85
2021/11/02 01:04:59;;;;;;;69.87;30.43;;;2.70;99.90;;;;;;5013510;28;20653;-85
2021/11/02 01:07:24;;;;;;;71.77;30.40;;;4.30;99.90;;;;;;5013270;28;20193;-85
2021/11/02 01:09:50;;;;;;;56.53;26.47;;;3.50;99.90;;;;;;5014338;28;20181;-84
2021/11/02 01:12:16;;;;;;;82.83;33.73;;;2.90;99.90;;;;;;4996860;28;20208;-85
2021/11/02 01:14:45;;;;;;;123.93;43.53;;;3.60;99.90;;;;;;5013411;28;20609;-85
2021/11/02 01:17:11;;;;;;;110.40;39.73;;;4.30;99.90;;;;;;5014196;28;20220;-85
2021/11/02 01:19:37;;;;;;;108.77;40.17;;;;;;;;;;5012966;28;20701;-85
2021/11/02 01:22:04;;;;;;;133.27;42.53;;;2.60;99.90;;;;;;5014343;28;20253;-85
2021/11/02 01:24:29;;;;;;;122.77;44.33;;;2.50;99.90;;;;;;5013092;28;20181;-85
2021/11/02 01:26:55;;;;;;;137.80;46.00;;;3.20;99.90;;;;;;5014216;28;20240;-85
2021/11/02 01:29:21;;;;;;;132.30;43.83;;;3.80;99.90;;;;;;5012668;28;20173;-85
2021/11/02 01:31:48;;;;;;;72.50;32.50;;;2.30;99.90;;;;;;4996551;28;20194;-85
2021/11/02 01:34:14;;;;;;;124.00;43.13;;;3.70;99.90;;;;;;4996580;28;20209;-85
2021/11/02 01:36:40;;;;;;;131.80;48.37;;;3.90;99.90;;;;;;5012990;28;20188;-85
2021/11/02 01:39:07;;;;;;;120.57;44.50;;;2.20;99.90;;;;;;4996313;28;20252;-92
2021/11/02 01:41:34;;;;;;;119.27;43.97;;;2.20;99.90;;;;;;5014111;28;20265;-85
2021/11/02 01:44:02;;;;;;;108.57;40.50;;;3.60;99.90;;;;;;5013791;28;20181;-85
2021/11/02 01:46:31;;;;;;;95.40;36.40;;;3.50;99.90;;;;;;4996579;28;20189;-86
2021/11/02 01:48:59;;;;;;;99.03;37.53;;;3.70;99.90;;;;;;5013737;28;20181;-85
2021/11/02 01:51:27;;;;;;;89.07;36.70;;;2.10;99.90;;;;;;5013890;28;20173;-86
2021/11/02 01:53:54;;;;;;;72.30;31.43;;;2.10;99.90;;;;;;5012764;28;20549;-85
2021/11/02 01:56:21;;;;;;;61.67;31.60;;;2.10;99.90;;;;;;5013771;28;20556;-85
2021/11/02 01:58:50;;;;;;;56.37;27.53;;;2.20;99.90;;;;;;4996245;28;20217;-86
2021/11/02 02:01:51;;;;;;;56.63;26.23;;;2.30;99.90;;;;;;5014032;28;20268;-86
2021/11/02 02:04:41;;;;;;;57.07;29.67;;;2.40;99.90;;;;;;5012215;28;20587;-87
2021/11/02 02:07:39;;;;;;;58.00;30.53;;;2.30;99.90;;;;;;5012512;28;20634;-87
2021/11/02 02:10:20;;;;;;;52.60;28.30;;;2.50;99.90;;;;;;4995993;28;20205;-86
2021/11/02 02:13:05;;;;;;;50.50;27.20;;;2.50;99.90;;;;;;5012719;28;20216;-87
2021/11/02 02:15:36;;;;;;;45.27;25.50;;;2.60;99.90;;;;;;5012301;28;20183;-87
2021/11/02 02:18:15;;;;;;;57.17;25.50;;;2.60;99.90;;;;;;5012550;28;20206;-87
2021/11/02 02:21:16;;;;;;;51.90;24.30;;;3.00;99.90;;;;;;5012682;28;20188;-87
2021/11/02 02:23:57;;;;;;;56.37;28.63;;;2.60;99.90;;;;;;5012586;28;20189;-87
2021/11/02 02:27:19;;;;;;;66.27;32.20;;;2.60;99.90;;;;;;5011964;28;20181;-87
2021/11/02 02:29:45;;;;;;;52.67;27.00;;;2.60;99.90;;;;;;4969430;28;20188;-86
2021/11/02 02:32:16;;;;;;;51.47;25.93;;;3.20;99.90;;;;;;4995839;28;20565;-87
2021/11/02 02:34:56;;;;;;;51.07;26.73;;;1.70;99.90;;;;;;5013603;28;20246;-86
2021/11/02 02:37:29;;;;;;;54.67;25.53;;;2.70;99.90;;;;;;5012146;28;20212;-86
2021/11/02 02:39:58;;;;;;;49.17;25.33;;;2.70;99.90;;;;;;5013663;28;20193;-86
2021/11/02 02:42:27;;;;;;;61.07;28.83;;;2.70;99.90;;;;;;5012368;28;20174;-86
2021/11/02 02:44:54;;;;;;;54.37;26.63;;;2.70;99.90;;;;;;5012454;28;20258;-86
2021/11/02 02:47:22;;;;;;;55.10;26.77;;;2.70;99.90;;;;;;5012068;28;20202;-85
2021/11/02 02:49:53;;;;;;;54.73;25.53;;;2.70;99.90;;;;;;5012131;28;20180;-86
2021/11/02 02:52:19;;;;;;;51.33;26.03;;;;;;;;;;5013216;28;20181;-85
2021/11/02 02:54:46;;;;;;;59.13;28.10;;;2.70;99.90;;;;;;5012061;28;20634;-85
2021/11/02 02:57:13;;;;;;;55.10;27.40;;;;;;;;;;5013316;28;20205;-85
2021/11/02 02:59:40;;;;;;;53.13;26.23;;;2.70;99.90;;;;;;5012021;28;20188;-85
2021/11/02 03:02:12;;;;;;;48.40;24.50;;;2.60;99.90;;;;;;5013313;28;20276;-86
2021/11/02 03:04:44;;;;;;;50.23;25.53;;;2.70;99.90;;;;;;5012006;28;20617;-85
2021/11/02 03:07:10;;;;;;;57.60;27.77;;;;;;;;;;5013313;28;20264;-86
2021/11/02 03:09:36;;;;;;;64.10;31.47;;;2.60;99.90;;;;;;5011800;28;20185;-86
2021/11/02 03:12:06;;;;;;;71.93;33.43;;;2.60;99.90;;;;;;5013234;28;20194;-85
2021/11/02 03:14:53;;;;;;;60.50;27.87;;;2.60;99.90;;;;;;4995385;28;20232;-85
2021/11/02 03:17:28;;;;;;;49.23;24.63;;;2.60;99.90;;;;;;5015259;28;20214;-86
2021/11/02 03:55:49;;;;;;;54.67;26.37;;;2.30;99.90;;;;;;5015863;28;20204;-86
2021/11/02 03:58:24;;;;;;;55.50;26.23;;;4.00;99.90;;;;;;4999966;28;20304;-86
2021/11/02 04:01:18;;;;;;;51.67;25.10;;;3.40;99.90;;;;;;5015892;28;20173;-86
2021/11/02 04:58:05;;;;;;;64.87;30.20;;;1.90;99.90;;;;;;5013927;28;20677;-85
2021/11/02 05:49:36;;;;;;;84.17;35.20;;;1.50;99.90;;;;;;5012495;28;20177;-84
2021/11/02 05:52:33;;;;;;;101.90;40.87;;;1.50;99.90;;;;;;5013952;28;20176;-89
2021/11/02 05:55:39;;;;;;;104.20;39.30;;;1.50;99.90;;;;;;5013262;28;20641;-86
2021/11/02 05:57:55;;;;;;;136.63;48.73;;;1.50;99.90;;;;;;5011022;28;20221;-85
2021/11/02 06:00:24;;;;;;;131.37;47.93;;;3.00;99.90;;;;;;4998122;28;20690;-86
2021/11/02 06:11:15;;;;;;;119.70;42.83;;;1.70;99.90;;;;;;5013605;28;20224;-86
2021/11/02 06:28:22;;;;;;;94.57;36.83;;;3.70;99.90;;;;;;5011817;28;20769;-86
2021/11/02 06:31:00;;;;;;;93.67;35.87;;;2.70;99.90;;;;;;5010527;28;20185;-86
2021/11/02 07:17:37;;;;;;;51.67;28.00;;;4.40;99.90;;;;;;5016581;28;20227;-85
2021/11/02 07:22:56;;;;;;;47.00;24.73;;;4.70;99.90;;;;;;5016667;28;20268;-86
2021/11/02 07:25:42;;;;;;;47.07;25.33;;;4.80;99.90;;;;;;5016619;28;20173;-85
2021/11/02 08:47:15;;;;;;;34.83;19.73;;;8.00;99.90;;;;;;5013345;28;20180;-87
2021/11/02 08:49:46;;;;;;;34.17;19.17;;;8.10;99.90;;;;;;4998007;28;20185;-85
2021/11/02 08:52:14;;;;;;;35.67;18.87;;;8.20;99.90;;;;;;5013108;28;20553;-85
2021/11/02 08:54:42;;;;;;;35.50;19.80;;;8.30;99.90;;;;;;5014516;28;20184;-86
2021/11/02 08:57:08;;;;;;;37.47;20.27;;;8.50;99.90;;;;;;5014211;28;20177;-85
2021/11/02 08:59:35;;;;;;;32.87;19.30;;;8.50;99.90;;;;;;5013272;28;20577;-86
2021/11/02 09:02:07;;;;;;;33.83;20.23;;;8.60;99.90;;;;;;5012914;28;20189;-86
2021/11/02 09:04:33;;;;;;;34.50;18.57;;;8.70;99.90;;;;;;5014258;28;20227;-86
2021/11/02 09:07:03;;;;;;;32.93;19.23;;;8.80;99.90;;;;;;5013047;28;20213;-87
2021/11/02 09:09:32;;;;;;;34.13;19.13;;;8.80;99.90;;;;;;5014564;28;20223;-86
2021/11/02 09:12:02;;;;;;;35.17;20.73;;;8.90;99.90;;;;;;5014365;28;20630;-87
2021/11/02 09:14:31;;;;;;;36.77;20.47;;;8.90;99.90;;;;;;5013762;28;20180;-87
2021/11/02 09:16:59;;;;;;;39.40;22.73;;;8.90;99.90;;;;;;5014073;28;20234;-87
2021/11/02 09:19:27;;;;;;;48.07;22.23;;;8.90;99.90;;;;;;5014483;28;20299;-87
2021/11/02 09:21:55;;;;;;;42.40;21.60;;;8.90;99.90;;;;;;5013567;28;20185;-85
2021/11/02 09:24:22;;;;;;;41.33;22.97;;;8.90;99.90;;;;;;5013534;28;20181;-87
2021/11/02 09:26:49;;;;;;;39.23;20.67;;;8.70;99.90;;;;;;4996053;28;20701;-86
2021/11/02 09:29:16;;;;;;;37.57;21.23;;;8.70;99.90;;;;;;5012948;28;20195;-90
2021/11/02 09:31:42;;;;;;;40.70;22.27;;;8.70;99.90;;;;;;5013359;28;20182;-86
2021/11/02 09:34:07;;;;;;;45.57;22.43;;;8.80;99.90;;;;;;4995790;28;20181;-93
2021/11/02 09:36:41;;;;;;;54.33;26.10;;;8.90;99.90;;;;;;5013122;28;20178;-87
2021/11/02 09:39:10;;;;;;;51.20;25.77;;;8.90;99.90;;;;;;5012613;28;20724;-86
2021/11/02 09:41:54;;;;;;;67.73;27.67;;;9.10;99.90;;;;;;5013543;28;20174;-86
2021/11/02 09:44:43;;;;;;;78.10;31.47;;;9.00;99.90;;;;;;5012119;28;20184;-87
2021/11/02 09:47:45;;;;;;;54.10;25.93;;;9.00;99.90;;;;;;5013366;28;20173;-91
2021/11/02 09:50:48;;;;;;;48.70;23.53;;;9.10;99.90;;;;;;5012216;28;20185;-86
2021/11/02 09:53:49;;;;;;;61.80;29.33;;;9.10;99.90;;;;;;5012866;28;20603;-87
2021/11/02 09:56:37;;;;;;;79.73;31.67;;;9.20;99.90;;;;;;5011739;28;20631;-86
2021/11/02 09:59:35;;;;;;;58.67;27.87;;;9.20;99.90;;;;;;5011281;28;20240;-86
2021/11/02 10:02:26;;;;;;;46.67;24.63;;;9.30;99.90;;;;;;5013336;28;20510;-86
2021/11/02 10:05:28;;;;;;;57.37;26.67;;;9.20;99.90;;;;;;5011905;28;20189;-85
2021/11/02 10:08:32;;;;;;;63.13;31.90;;;9.30;99.90;;;;;;5011856;28;20196;-86
2021/11/02 10:11:26;;;;;;;70.60;31.57;;;9.40;99.90;;;;;;4996596;28;20200;-88
2021/11/02 10:14:17;;;;;;;75.43;35.23;;;9.30;99.90;;;;;;5011955;28;20628;-89
2021/11/02 10:16:54;;;;;;;66.63;34.67;;;9.40;99.90;;;;;;5011810;28;20178;-87
2021/11/02 10:19:41;;;;;;;59.27;31.33;;;9.30;99.90;;;;;;5011499;28;20689;-86
2021/11/02 10:22:17;;;;;;;58.13;31.33;;;7.40;99.90;;;;;;5011716;28;20181;-87
2021/11/02 10:25:08;;;;;;;55.83;29.60;;;8.90;99.90;;;;;;5011676;28;20172;-88
2021/11/02 10:28:10;;;;;;;61.27;30.87;;;8.60;99.90;;;;;;5016679;28;20302;-88
2021/11/02 10:30:49;;;;;;;67.00;31.30;;;8.50;99.90;;;;;;5016598;28;20168;-88
2021/11/02 10:33:29;;;;;;;67.33;31.73;;;8.30;99.90;;;;;;5015577;28;20211;-90
2021/11/02 10:36:17;;;;;;;70.27;34.23;;;8.30;99.90;;;;;;5015431;28;20185;-89
2021/11/02 10:39:06;;;;;;;62.87;32.27;;;8.10;99.90;;;;;;5023465;28;20201;-89
2021/11/02 10:41:47;;;;;;;60.47;31.27;;;8.10;99.90;;;;;;5015383;28;20184;-88
2021/11/02 10:44:18;;;;;;;58.03;29.97;;;8.00;99.90;;;;;;5016596;28;20200;-86
2021/11/02 10:47:00;;;;;;;60.53;30.63;;;7.90;99.90;;;;;;5015131;28;20177;-86
2021/11/02 10:49:58;;;;;;;54.07;28.90;;;7.80;99.90;;;;;;5014890;28;20188;-86
2021/11/02 10:52:31;;;;;;;61.70;31.53;;;7.60;99.90;;;;;;5016376;28;20165;-86
2021/11/02 10:55:35;;;;;;;59.70;29.37;;;7.60;99.90;;;;;;5015245;28;20184;-86
2021/11/02 10:58:31;;;;;;;52.33;28.87;;;7.70;99.90;;;;;;5016189;28;20211;-86
2021/11/02 11:01:00;;;;;;;52.00;26.37;;;7.80;99.90;;;;;;5016597;28;20210;-86
2021/11/02 11:03:30;;;;;;;55.03;28.33;;;7.80;99.90;;;;;;5016243;28;20174;-87
2021/11/02 11:06:04;;;;;;;57.73;29.67;;;7.90;99.90;;;;;;5016652;28;20177;-86
2021/11/02 11:08:34;;;;;;;48.63;27.43;;;8.00;99.90;;;;;;5014942;28;20541;-86
2021/11/02 11:11:02;;;;;;;51.80;27.27;;;8.20;99.90;;;;;;5016194;28;20641;-88
2021/11/02 11:13:29;;;;;;;53.00;29.03;;;8.30;99.90;;;;;;4999072;28;20177;-86
2021/11/02 11:16:10;;;;;;;55.30;27.57;;;8.30;99.90;;;;;;5015294;28;20177;-86
2021/11/02 11:18:51;;;;;;;47.30;26.23;;;8.60;99.90;;;;;;5016300;28;20662;-87
2021/11/02 11:21:17;;;;;;;48.50;27.17;;;9.00;99.90;;;;;;5015208;28;20181;-88
2021/11/02 11:23:44;;;;;;;48.57;25.83;;;9.10;99.90;;;;;;5016578;28;20631;-86
2021/11/02 11:26:10;;;;;;;49.90;27.03;;;9.20;99.90;;;;;;5015296;28;20178;-86
2021/11/02 11:28:40;;;;;;;57.43;28.13;;;8.90;99.90;;;;;;5015403;28;20192;-88
2021/11/02 11:31:07;;;;;;;59.83;29.73;;;8.60;99.90;;;;;;5014849;28;20185;-86
2021/11/02 11:33:33;;;;;;;50.47;25.97;;;8.50;99.90;;;;;;5015965;28;20223;-87
2021/11/02 11:36:04;;;;;;;53.47;27.20;;;8.40;99.90;;;;;;4999784;28;20193;-87
2021/11/02 11:38:36;;;;;;;54.10;26.63;;;8.30;99.90;;;;;;5016101;28;20197;-88
2021/11/02 11:41:08;;;;;;;48.47;26.43;;;8.00;99.90;;;;;;5015315;28;20192;-89
2021/11/02 11:43:37;;;;;;;52.27;27.40;;;7.90;99.90;;;;;;5015499;28;20209;-88
2021/11/02 11:46:04;;;;;;;58.10;27.80;;;7.80;99.90;;;;;;4999702;28;20611;-88
2021/11/02 11:48:33;;;;;;;61.83;29.73;;;7.70;99.90;;;;;;5014599;28;20205;-88
2021/11/02 11:51:01;;;;;;;59.60;30.53;;;7.60;99.90;;;;;;5014487;28;20185;-88
2021/11/02 11:53:30;;;;;;;62.23;28.37;;;7.50;99.90;;;;;;5014950;28;20184;-88
2021/11/02 11:56:05;;;;;;;59.63;28.30;;;7.40;99.90;;;;;;5018248;28;20187;-87
2021/11/02 11:58:31;;;;;;;58.43;27.23;;;7.30;99.90;;;;;;5018487;28;20204;-88
2021/11/02 12:01:39;;;;;;;55.87;28.40;;;7.20;99.90;;;;;;5001926;28;20268;-89
2021/11/02 12:04:30;;;;;;;59.00;28.37;;;7.00;99.90;;;;;;5014493;28;20184;-88
2021/11/02 12:07:37;;;;;;;61.73;29.70;;;7.00;99.90;;;;;;5015314;28;20180;-86
2021/11/02 12:10:05;;;;;;;60.30;29.77;;;7.00;99.90;;;;;;5015455;28;20166;-87
2021/11/02 12:12:39;;;;;;;59.93;29.30;;;7.00;99.90;;;;;;5015619;28;20191;-87
2021/11/02 12:15:10;;;;;;;63.47;30.13;;;6.90;99.90;;;;;;5014748;28;20185;-89
2021/11/02 12:17:42;;;;;;;64.43;31.20;;;6.90;99.90;;;;;;5016371;28;20197;-87
2021/11/02 12:20:11;;;;;;;70.23;32.20;;;7.00;99.90;;;;;;5014154;28;20189;-88
2021/11/02 12:22:49;;;;;;;66.77;31.47;;;6.80;99.90;;;;;;5014885;28;20185;-89
2021/11/02 12:25:24;;;;;;;76.43;33.93;;;7.20;99.90;;;;;;5015881;28;20288;-89
2021/11/02 12:27:50;;;;;;;82.40;37.63;;;6.80;99.90;;;;;;5013810;28;20240;-88
2021/11/02 12:30:21;;;;;;;98.33;40.53;;;6.70;99.90;;;;;;5015388;28;20179;-88
2021/11/02 12:32:55;;;;;;;101.33;41.97;;;6.70;99.90;;;;;;5014508;28;20184;-88
2021/11/02 12:35:46;;;;;;;95.80;41.17;;;6.60;99.90;;;;;;4998964;28;20180;-88
2021/11/02 12:38:12;;;;;;;71.50;35.37;;;6.60;99.90;;;;;;5015034;28;20201;-88
2021/11/02 12:40:41;;;;;;;73.17;33.90;;;7.10;99.90;;;;;;5015007;28;20615;-88
2021/11/02 12:43:26;;;;;;;67.37;33.50;;;6.60;99.90;;;;;;5015085;28;20184;-88
2021/11/02 12:45:57;;;;;;;73.30;35.40;;;6.60;99.90;;;;;;5014087;28;20642;-88
2021/11/02 12:48:24;;;;;;;76.73;35.83;;;6.50;99.90;;;;;;5013120;28;20196;-87
2021/11/02 12:50:51;;;;;;;78.40;34.87;;;5.50;99.90;;;;;;5014920;28;20185;-87
2021/11/02 12:53:18;;;;;;;76.83;34.40;;;6.40;99.90;;;;;;5017145;28;20177;-88
2021/11/02 12:55:45;;;;;;;80.83;37.07;;;6.40;99.90;;;;;;4998882;28;20232;-87
2021/11/02 12:58:11;;;;;;;75.37;36.70;;;6.40;99.90;;;;;;5014468;28;20577;-89
2021/11/02 13:00:45;;;;;;;79.53;37.90;;;6.40;99.90;;;;;;5015288;28;20192;-88
2021/11/02 13:03:20;;;;;;;81.50;38.40;;;6.40;99.90;;;;;;5029033;28;20190;-88
2021/11/02 13:05:55;;;;;;;82.50;39.20;;;6.40;99.90;;;;;;5030539;28;20167;-87
2021/11/02 13:08:29;;;;;;;81.83;38.87;;;6.50;99.90;;;;;;5031186;28;20185;-88
2021/11/02 13:11:03;;;;;;;84.47;37.00;;;6.40;99.90;;;;;;5033141;28;20188;-87
2021/11/02 13:13:31;;;;;;;78.37;35.53;;;6.40;99.90;;;;;;5038464;28;20181;-89
2021/11/02 13:15:58;;;;;;;93.23;42.27;;;6.40;99.90;;;;;;5019689;28;20181;-89
2021/11/02 13:18:42;;;;;;;102.13;44.37;;;6.40;99.90;;;;;;5032444;28;20201;-86
2021/11/02 13:21:29;;;;;;;76.90;36.03;;;6.40;99.90;;;;;;5037626;28;20169;-86
2021/11/02 13:24:04;;;;;;;85.80;37.83;;;6.30;99.90;;;;;;5033509;28;20174;-90
2021/11/02 13:26:31;;;;;;;78.20;33.87;;;6.30;99.90;;;;;;5036261;28;20220;-90
2021/11/02 13:29:17;;;;;;;71.07;33.90;;;6.30;99.90;;;;;;5037641;28;20196;-90
2021/11/02 13:31:44;;;;;;;75.47;33.23;;;6.30;99.90;;;;;;5022814;28;20184;-89
2021/11/02 13:34:17;;;;;;;74.37;34.33;;;6.30;99.90;;;;;;5019103;28;20237;-91
2021/11/02 13:36:44;;;;;;;71.57;32.60;;;6.60;99.90;;;;;;5025045;28;20170;-88
2021/11/02 13:39:13;;;;;;;74.47;34.63;;;6.20;99.90;;;;;;5013410;28;20205;-88
2021/11/02 13:41:46;;;;;;;79.10;34.33;;;6.10;99.90;;;;;;5013422;28;20182;-89
2021/11/02 13:44:14;;;;;;;70.03;32.50;;;;;;;;;;5012644;28;20231;-88
2021/11/02 13:46:52;;;;;;;64.83;34.00;;;6.10;99.90;;;;;;5011747;28;20193;-88
2021/11/02 13:49:19;;;;;;;73.17;35.60;;;6.10;99.90;;;;;;4996587;28;20185;-88
2021/11/02 13:51:52;;;;;;;83.87;36.83;;;6.00;99.90;;;;;;4995576;28;20185;-90
2021/11/02 13:54:22;;;;;;;81.47;37.50;;;6.00;99.90;;;;;;4995806;28;20236;-86
2021/11/02 13:56:49;;;;;;;76.20;38.13;;;;;;;;;;5013825;28;20166;-90
2021/11/02 13:59:15;;;;;;;86.93;39.57;;;6.00;99.90;;;;;;5013613;28;20200;-87
2021/11/02 14:01:45;;;;;;;87.43;39.63;;;6.00;99.90;;;;;;5012180;28;20220;-88
2021/11/02 14:04:39;;;;;;;87.37;37.17;;;6.00;99.90;;;;;;5014198;28;20255;-88
2021/11/02 14:07:22;;;;;;;94.50;38.27;;;6.00;99.90;;;;;;5013366;28;20260;-86
2021/11/02 14:10:09;;;;;;;79.30;37.13;;;6.10;99.90;;;;;;5011747;28;20184;-88
2021/11/02 14:12:40;;;;;;;83.27;36.13;;;6.10;99.90;;;;;;4995640;28;20791;-89
2021/11/02 14:15:12;;;;;;;82.63;38.50;;;6.00;99.90;;;;;;5012232;28;20622;-88
2021/11/02 14:17:40;;;;;;;114.47;38.13;;;6.10;99.90;;;;;;5011900;28;20682;-87
2021/11/02 14:20:07;;;;;;;89.53;40.97;;;6.10;99.90;;;;;;5013302;28;20239;-87
2021/11/02 14:22:52;;;;;;;94.80;41.43;;;6.10;99.90;;;;;;5012055;28;20181;-89
2021/11/02 14:25:18;;;;;;;95.13;41.43;;;6.10;99.90;;;;;;5005722;28;20196;-89
2021/11/02 14:27:46;;;;;;;88.37;39.03;;;6.10;99.90;;;;;;5020486;28;20567;-88
2021/11/02 14:30:32;;;;;;;98.10;39.87;;;6.20;99.90;;;;;;5020806;28;20181;-88
2021/11/02 14:33:03;;;;;;;107.47;43.90;;;6.10;99.90;;;;;;4999722;28;20193;-85
2021/11/02 14:35:39;;;;;;;98.27;45.63;;;6.10;99.90;;;;;;5013387;28;20223;-84
2021/11/02 14:38:13;;;;;;;123.80;48.87;;;6.10;99.90;;;;;;5011886;28;20208;-85
2021/11/02 14:40:40;;;;;;;114.20;49.47;;;6.10;99.90;;;;;;5013269;28;20177;-87
2021/11/02 14:43:12;;;;;;;115.43;52.70;;;6.10;99.90;;;;;;5011924;28;20571;-84
2021/11/02 14:45:42;;;;;;;123.43;51.00;;;6.10;99.90;;;;;;5013087;28;20197;-85
2021/11/02 14:48:29;;;;;;;119.00;50.70;;;6.10;99.90;;;;;;5013479;28;20177;-84
2021/11/02 14:51:01;;;;;;;106.20;46.27;;;6.10;99.90;;;;;;5013419;28;20169;-84
2021/11/02 14:53:27;;;;;;;124.97;58.40;;;6.00;99.90;;;;;;5012747;28;20200;-88
2021/11/02 14:56:11;;;;;;;131.30;57.17;;;6.00;99.90;;;;;;5012449;28;20661;-86
2021/11/02 14:58:40;;;;;;;115.50;52.67;;;6.00;99.90;;;;;;5012978;28;20247;-86
2021/11/02 15:01:18;;;;;;;110.50;49.77;;;6.00;99.90;;;;;;5011749;28;20657;-85
2021/11/02 15:03:59;;;;;;;113.37;52.93;;;6.00;99.90;;;;;;5013585;28;20610;-87
2021/11/02 15:06:48;;;;;;;118.77;54.30;;;6.00;99.90;;;;;;5012413;28;20200;-90
2021/11/02 15:09:17;;;;;;;134.20;56.33;;;6.00;99.90;;;;;;5010270;28;20181;-89
2021/11/02 15:11:47;;;;;;;156.47;70.00;;;6.00;99.90;;;;;;5011892;28;20276;-88
2021/11/02 15:14:16;;;;;;;145.60;65.40;;;6.00;99.90;;;;;;5014839;28;20181;-90
2021/11/02 15:16:48;;;;;;;113.83;51.67;;;6.00;99.90;;;;;;5015573;28;20204;-87
2021/11/02 15:19:15;;;;;;;125.17;57.07;;;6.00;99.90;;;;;;5014565;28;20213;-87
2021/11/02 15:21:43;;;;;;;133.97;59.73;;;6.00;99.90;;;;;;5016552;28;20181;-91
2021/11/02 15:24:21;;;;;;;120.30;52.47;;;6.00;99.90;;;;;;5015865;28;20193;-91
2021/11/02 15:26:52;;;;;;;108.03;51.83;;;6.00;99.90;;;;;;5014818;28;20224;-87
2021/11/02 15:29:20;;;;;;;142.70;66.77;;;6.00;99.90;;;;;;5014436;28;20192;-88
2021/11/02 15:32:08;;;;;;;171.97;81.80;;;6.00;99.90;;;;;;5016114;28;20215;-90
2021/11/02 15:34:40;;;;;;;163.73;74.80;;;6.00;99.90;;;;;;5015961;28;20165;-88
2021/11/02 15:37:07;;;;;;;125.10;56.47;;;6.00;99.90;;;;;;5018162;28;20177;-89
2021/11/02 15:39:33;;;;;;;123.63;57.30;;;6.00;99.90;;;;;;5016042;28;20562;-89
2021/11/02 15:42:01;;;;;;;136.57;64.13;;;6.00;99.90;;;;;;5014893;28;20565;-90
2021/11/02 15:44:28;;;;;;;116.93;54.97;;;6.00;99.90;;;;;;5014343;28;20181;-86
2021/11/02 15:46:54;;;;;;;118.60;55.53;;;6.00;99.90;;;;;;5015725;28;20319;-85
2021/11/02 15:49:22;;;;;;;118.60;54.50;;;6.00;99.90;;;;;;5014261;28;20268;-86
2021/11/02 15:51:58;;;;;;;127.27;58.57;;;6.00;99.90;;;;;;5016522;28;20181;-85
2021/11/02 15:54:28;;;;;;;183.03;75.83;;;6.00;99.90;;;;;;5015985;28;20184;-85
2021/11/02 15:57:07;;;;;;;166.77;73.17;;;5.70;99.90;;;;;;4998393;28;20192;-86
2021/11/02 15:59:33;;;;;;;178.67;77.73;;;6.00;99.90;;;;;;5014613;28;20279;-86
2021/11/02 16:01:59;;;;;;;178.20;84.23;;;6.00;99.90;;;;;;5013727;28;20186;-85
2021/11/02 16:04:25;;;;;;;168.90;75.20;;;6.10;99.90;;;;;;5015501;28;20196;-88
2021/11/02 16:07:01;;;;;;;171.27;71.60;;;6.10;99.90;;;;;;5014491;28;20173;-88
2021/11/02 16:09:52;;;;;;;214.53;88.47;;;6.10;99.90;;;;;;5014335;28;20203;-89
2021/11/02 16:12:32;;;;;;;442.83;157.27;;;6.10;99.90;;;;;;5015963;28;20187;-89
2021/11/02 16:15:07;;;;;;;207.00;89.97;;;6.10;99.90;;;;;;5014149;28;20176;-90
2021/11/02 16:17:44;;;;;;;184.90;80.87;;;6.10;99.90;;;;;;5015314;28;20173;-91
2021/11/02 16:20:22;;;;;;;206.73;89.97;;;6.10;99.90;;;;;;5017657;28;20251;-88
2021/11/02 16:23:10;;;;;;;234.93;101.30;;;6.10;99.90;;;;;;5018503;28;20287;-88
2021/11/02 16:25:45;;;;;;;305.47;120.60;;;6.10;99.90;;;;;;5015584;28;20211;-91
2021/11/02 16:28:18;;;;;;;648.23;250.23;;;6.10;99.90;;;;;;5013763;28;20237;-90
2021/11/02 16:31:08;;;;;;;523.10;190.13;;;6.10;99.90;;;;;;5015779;28;20177;-86
2021/11/02 16:33:40;;;;;;;701.23;274.53;;;6.10;99.90;;;;;;5014326;28;20189;-86
2021/11/02 16:36:21;;;;;;;300.80;126.23;;;6.10;99.90;;;;;;5017837;28;20177;-89
2021/11/02 16:38:49;;;;;;;222.83;95.00;;;6.10;99.90;;;;;;5021768;28;20205;-89
2021/11/02 16:41:42;;;;;;;259.07;104.87;;;6.10;99.90;;;;;;5013790;28;20268;-85
2021/11/02 16:44:12;;;;;;;256.50;104.53;;;6.10;99.90;;;;;;5016485;28;20161;-86
2021/11/02 16:46:43;;;;;;;274.90;106.80;;;6.10;99.90;;;;;;5018420;28;20199;-90
2021/11/02 16:49:25;;;;;;;342.67;125.57;;;6.10;99.90;;;;;;5014620;28;20189;-85
2021/11/02 16:51:57;;;;;;;455.90;150.37;;;9.10;99.90;;;;;;5014332;28;20176;-86
2021/11/02 16:54:25;;;;;;;390.33;137.73;;;6.10;99.90;;;;;;5014624;28;20169;-87
2021/11/02 16:57:21;;;;;;;294.40;113.23;;;6.10;99.90;;;;;;5013181;28;20590;-86
2021/11/02 17:00:04;;;;;;;224.77;92.87;;;6.10;99.90;;;;;;5004245;28;20201;-88
2021/11/02 17:02:38;;;;;;;197.67;79.87;;;6.10;99.90;;;;;;5013078;28;20173;-87
2021/11/02 17:05:24;;;;;;;253.40;99.23;;;6.10;99.90;;;;;;5013140;28;20507;-87
2021/11/02 17:07:54;;;;;;;322.03;128.20;;;6.10;99.90;;;;;;5012816;28;20181;-87
2021/11/02 17:10:26;;;;;;;282.60;119.43;;;6.00;99.90;;;;;;5013802;28;20177;-88
2021/11/02 17:12:54;;;;;;;236.23;97.03;;;6.00;99.90;;;;;;5013889;28;20181;-87
2021/11/02 17:15:25;;;;;;;190.77;82.10;;;6.00;99.90;;;;;;5013736;28;20174;-88
2021/11/02 17:17:52;;;;;;;211.73;92.17;;;6.00;99.90;;;;;;5014092;28;20662;-87
2021/11/02 17:20:20;;;;;;;185.40;90.07;;;6.10;99.90;;;;;;5013536;28;20209;-87
2021/11/02 17:22:46;;;;;;;238.83;107.37;;;6.10;99.90;;;;;;5012453;28;20243;-86
2021/11/02 17:25:13;;;;;;;228.23;103.77;;;6.10;99.90;;;;;;5013855;28;20173;-85
2021/11/02 17:27:39;;;;;;;216.70;97.20;;;6.10;99.90;;;;;;5012301;28;20709;-86
2021/11/02 17:30:05;;;;;;;210.93;93.93;;;6.10;99.90;;;;;;5012816;28;20263;-88
2021/11/02 17:32:32;;;;;;;224.83;101.03;;;6.10;99.90;;;;;;5012604;28;20272;-86
2021/11/02 17:35:00;;;;;;;322.53;135.97;;;6.10;99.90;;;;;;5012099;28;20169;-86
2021/11/02 17:37:31;;;;;;;318.40;127.47;;;6.10;99.90;;;;;;5012230;28;20216;-85
2021/11/02 17:40:00;;;;;;;284.33;117.97;;;6.10;99.90;;;;;;5012451;28;20189;-86
2021/11/02 17:42:27;;;;;;;273.23;107.23;;;6.10;99.90;;;;;;5012394;28;20674;-87
2021/11/02 17:44:53;;;;;;;346.63;113.77;;;6.10;99.90;;;;;;4996491;28;20235;-86
2021/11/02 17:47:19;;;;;;;315.50;105.93;;;6.10;99.90;;;;;;5013484;28;20177;-89
2021/11/02 17:49:46;;;;;;;275.73;107.67;;;6.00;99.90;;;;;;4996184;28;20177;-88
2021/11/02 17:52:12;;;;;;;254.83;112.07;;;6.00;99.90;;;;;;5013306;28;20272;-88
2021/11/02 17:54:39;;;;;;;216.83;96.13;;;6.00;99.90;;;;;;5012159;28;20181;-86
2021/11/02 17:57:08;;;;;;;221.40;97.40;;;6.10;99.90;;;;;;5013311;28;20200;-88
2021/11/02 17:59:35;;;;;;;233.93;100.30;;;6.10;99.90;;;;;;5013152;28;20205;-87